Time;durP1;ratioP1;P1;durP2;ratioP2;P2;SDS_P1;SDS_P2;PMS_P1;PMS_P2;Temp;Humidity;BMP_temperature;BMP_pressure;BME280_temperature;BME280_humidity;BME280_pressure;Samples;Min_cycle;Max_cycle;Signal;HPM_P1;HPM_P2
2023/12/09 00:00:15;;;;;;;19.10;16.30;;;;;;;23.20;21.03;101046.60;104901;1305;67959;-88
2023/12/09 00:02:41;;;;;;;19.30;17.30;;;;;;;23.21;20.97;101049.08;104803;1308;67611;-88
2023/12/09 00:05:15;;;;;;;20.70;17.20;;;;;;;23.21;20.86;101046.45;104643;1302;67670;31
2023/12/09 00:07:41;;;;;;;19.50;17.20;;;;;;;23.21;20.71;101044.60;104655;1310;67693;-89
2023/12/09 00:10:08;;;;;;;21.00;17.80;;;;;;;23.21;20.86;101051.23;104650;1306;67674;-89
2023/12/09 00:12:34;;;;;;;19.00;16.90;;;;;;;23.21;20.86;101057.81;104724;1305;67789;-89
2023/12/09 00:15:06;;;;;;;20.20;17.10;;;;;;;23.22;20.86;101062.99;104817;1307;67765;-88
2023/12/09 00:17:32;;;;;;;18.70;16.80;;;;;;;23.21;20.67;101064.73;104376;1307;67639;-89
2023/12/09 00:22:36;;;;;;;19.60;16.80;;;;;;;23.22;20.84;101061.30;104919;1308;74583;-89
2023/12/09 00:25:03;;;;;;;19.40;16.70;;;;;;;23.22;20.83;101060.19;104833;1306;67907;-89
2023/12/09 00:27:32;;;;;;;17.80;15.90;;;;;;;23.22;20.82;101063.41;105011;1304;72734;-89
2023/12/09 00:29:58;;;;;;;19.00;16.20;;;;;;;23.22;20.77;101065.39;104829;1307;67587;-89
2023/12/09 00:32:24;;;;;;;18.30;16.30;;;;;;;23.22;20.75;101067.09;104846;1307;67668;-89
2023/12/09 00:40:32;;;;;;;17.80;15.80;;;;;;;23.21;20.76;101067.45;105151;1306;73239;-89
2023/12/09 00:42:58;;;;;;;19.10;15.80;;;;;;;23.21;20.74;101069.10;104622;1308;67608;-89
2023/12/09 00:45:25;;;;;;;17.70;15.40;;;;;;;23.22;20.62;101073.42;104606;1306;67368;-89
2023/12/09 00:47:51;;;;;;;17.60;15.80;;;;;;;23.22;20.43;101077.52;104661;1308;67952;-89
2023/12/09 00:50:17;;;;;;;17.80;15.70;;;;;;;23.23;20.47;101079.68;104681;1299;67656;-88
2023/12/09 00:52:43;;;;;;;18.70;16.20;;;;;;;23.23;20.55;101075.79;104607;1308;67355;-89
2023/12/09 00:55:11;;;;;;;17.70;15.80;;;;;;;23.23;20.47;101078.80;104808;1308;67727;-89
2023/12/09 00:57:37;;;;;;;17.60;15.50;;;;;;;23.23;20.54;101069.63;104690;1309;67256;-89
2023/12/09 01:00:04;;;;;;;17.70;14.70;;;;;;;23.24;20.45;101065.05;104894;1308;67358;-89
2023/12/09 01:02:31;;;;;;;16.80;15.10;;;;;;;23.23;20.52;101061.05;104818;1308;67901;-88
2023/12/09 01:04:57;;;;;;;18.30;16.20;;;;;;;23.23;20.42;101058.78;104850;1308;67626;-89
2023/12/09 01:07:23;;;;;;;18.80;16.80;;;;;;;23.23;20.45;101058.94;104537;1308;68115;-89
2023/12/09 01:09:49;;;;;;;17.40;15.50;;;;;;;23.24;20.36;101064.74;104849;1309;67740;-89
2023/12/09 01:12:15;;;;;;;18.90;15.80;;;;;;;23.24;20.33;101070.95;104871;1308;67565;-89
2023/12/09 01:14:41;;;;;;;17.40;14.90;;;;;;;23.23;20.36;101072.03;104679;1311;67772;-89
2023/12/09 01:17:07;;;;;;;17.30;15.40;;;;;;;23.23;20.40;101072.02;104712;1309;67716;-89
2023/12/09 01:19:33;;;;;;;17.60;15.70;;;;;;;23.23;20.32;101074.04;104665;1308;67587;-89
2023/12/09 01:21:59;;;;;;;18.40;15.90;;;;;;;23.23;20.21;101084.05;104860;1310;67671;-89
2023/12/09 01:24:24;;;;;;;18.50;15.60;;;;;;;23.23;20.26;101085.73;104837;1308;67731;-89
2023/12/09 01:26:50;;;;;;;18.80;15.90;;;;;;;23.23;20.33;101085.03;104600;1309;67693;-89
2023/12/09 01:29:16;;;;;;;18.60;16.50;;;;;;;23.24;20.25;101084.98;104687;1308;67639;-89
2023/12/09 01:34:23;;;;;;;18.10;15.40;;;;;;;23.23;20.24;101082.45;104996;1308;67517;-90
2023/12/09 01:39:54;;;;;;;17.70;15.70;;;;;;;23.23;20.13;101081.02;105043;1305;67686;-89
2023/12/09 01:45:46;;;;;;;17.50;15.50;;;;;;;23.22;20.17;101080.82;105078;1304;67749;-89
2023/12/09 01:48:38;;;;;;;18.20;16.00;;;;;;;23.22;20.07;101074.29;105056;1305;73111;-89
2023/12/09 01:53:58;;;;;;;16.70;14.90;;;;;;;23.22;20.10;101072.09;105085;1305;67086;-89
2023/12/09 01:56:30;;;;;;;17.20;15.40;;;;;;;23.23;19.95;101075.84;104873;1308;67260;-90
2023/12/09 01:59:01;;;;;;;18.20;16.30;;;;;;;23.24;20.09;101071.67;105046;1301;67680;-89
2023/12/09 02:01:31;;;;;;;17.20;15.50;;;;;;;23.24;20.07;101069.88;104940;1308;76105;-90
2023/12/09 02:04:23;;;;;;;18.80;16.30;;;;;;;23.23;20.07;101068.86;104997;1308;72247;-90
2023/12/09 02:06:57;;;;;;;16.30;14.60;;;;;;;23.23;20.06;101070.08;105015;1308;67831;-90
2023/12/09 02:09:29;;;;;;;19.00;16.40;;;;;;;23.24;20.09;101071.11;104838;1305;67675;-90
2023/12/09 02:15:03;;;;;;;17.70;15.90;;;;;;;23.24;20.03;101065.36;104999;1304;67774;-90
2023/12/09 02:20:48;;;;;;;18.60;16.60;;;;;;;23.23;20.05;101066.28;105030;1305;67598;-90
2023/12/09 02:26:40;;;;;;;17.30;15.40;;;;;;;23.24;19.96;101077.36;105046;1305;67291;-90
2023/12/09 02:29:14;;;;;;;18.40;16.30;;;;;;;23.23;20.02;101072.08;105019;1305;67605;-89
2023/12/09 02:32:00;;;;;;;17.30;15.40;;;;;;;23.24;20.02;101064.27;105177;1299;74892;31
2023/12/09 02:40:44;;;;;;;17.40;15.60;;;;;;;23.24;20.02;101065.05;105061;1299;67082;31
2023/12/09 02:43:10;;;;;;;18.30;16.40;;;;;;;23.25;20.11;101061.35;104687;1308;67584;-89
2023/12/09 02:45:37;;;;;;;18.30;16.50;;;;;;;23.26;19.99;101058.38;104758;1305;67482;-89
2023/12/09 02:48:03;;;;;;;17.70;15.90;;;;;;;23.26;19.96;101061.81;104676;1305;68304;-89
2023/12/09 02:50:30;;;;;;;18.00;16.10;;;;;;;23.27;19.99;101060.89;104892;1304;67748;-88
2023/12/09 02:52:56;;;;;;;19.20;15.50;;;;;;;23.27;19.98;101061.77;104703;1307;67122;-89
2023/12/09 02:58:59;;;;;;;19.70;15.50;;;;;;;23.26;19.93;101058.68;104847;1308;73124;-90
2023/12/09 03:04:02;;;;;;;17.50;15.00;;;;;;;23.26;20.04;101052.48;105195;1305;67791;-89
2023/12/09 03:06:28;;;;;;;18.80;15.90;;;;;;;23.26;19.92;101054.94;104725;1308;67623;-89
2023/12/09 03:08:54;;;;;;;18.60;16.30;;;;;;;23.27;19.98;101055.65;104748;1307;67115;-89
2023/12/09 03:11:20;;;;;;;16.60;14.80;;;;;;;23.27;20.07;101058.42;104870;1308;67631;-88
2023/12/09 03:13:46;;;;;;;20.00;16.20;;;;;;;23.28;20.06;101056.94;104581;1307;67244;-88
2023/12/09 03:16:12;;;;;;;17.70;15.80;;;;;;;23.29;20.09;101058.17;104829;1308;67866;-88
2023/12/09 03:18:38;;;;;;;17.90;15.40;;;;;;;23.29;20.13;101055.61;104672;1307;68270;-88
2023/12/09 03:21:04;;;;;;;18.40;16.50;;;;;;;23.29;20.14;101051.30;104731;1305;67323;-89
2023/12/09 03:23:30;;;;;;;18.20;15.40;;;;;;;23.29;20.19;101044.05;104932;1305;68217;-89
2023/12/09 03:25:56;;;;;;;17.80;15.40;;;;;;;23.30;20.15;101046.83;104897;1307;67587;-88
2023/12/09 03:28:41;;;;;;;17.30;15.00;;;;;;;23.30;20.10;101044.15;104720;1299;67887;31
2023/12/09 03:31:11;;;;;;;16.80;15.00;;;;;;;23.29;20.17;101043.64;104652;1308;67137;-88
2023/12/09 03:33:37;;;;;;;16.60;14.50;;;;;;;23.29;20.11;101045.23;104863;1307;74302;-89
2023/12/09 03:36:05;;;;;;;16.80;15.00;;;;;;;23.30;20.12;101039.63;104855;1308;67230;-90
2023/12/09 03:38:31;;;;;;;17.70;15.00;;;;;;;23.31;20.00;101036.77;104766;1308;67205;-90
2023/12/09 03:40:57;;;;;;;16.70;14.90;;;;;;;23.30;20.08;101037.59;104869;1308;67725;-89
2023/12/09 03:43:28;;;;;;;18.80;14.70;;;;;;;23.30;19.97;101041.38;104685;1315;66989;31
2023/12/09 03:45:54;;;;;;;15.70;13.90;;;;;;;23.30;20.14;101039.94;104517;1308;75350;-89
2023/12/09 03:48:20;;;;;;;17.30;14.80;;;;;;;23.30;20.13;101040.51;104734;1308;68018;-89
2023/12/09 03:50:46;;;;;;;16.40;14.60;;;;;;;23.30;20.15;101042.26;104726;1308;67786;-89
2023/12/09 03:53:12;;;;;;;17.70;14.60;;;;;;;23.31;20.16;101038.77;104721;1308;67907;-88
2023/12/09 03:55:38;;;;;;;16.60;14.80;;;;;;;23.32;20.07;101035.06;104706;1299;67219;-88
2023/12/09 03:58:04;;;;;;;17.80;15.00;;;;;;;23.32;20.06;101035.95;104854;1308;67790;-88
2023/12/09 04:00:30;;;;;;;16.60;14.70;;;;;;;23.31;20.01;101039.42;104608;1308;68046;-88
2023/12/09 04:02:56;;;;;;;17.20;14.30;;;;;;;23.32;20.10;101041.27;104861;1308;67805;-89
2023/12/09 04:05:22;;;;;;;17.40;14.30;;;;;;;23.32;20.08;101046.67;104636;1311;74715;-89
2023/12/09 04:07:48;;;;;;;16.30;13.90;;;;;;;23.32;20.16;101043.85;104646;1308;67219;-88
2023/12/09 04:10:22;;;;;;;18.00;13.90;;;;;;;23.32;20.09;101046.73;104725;1307;67729;31
2023/12/09 04:12:48;;;;;;;17.00;14.80;;;;;;;23.32;20.00;101047.13;104412;1314;67758;-88
2023/12/09 04:15:14;;;;;;;14.80;13.20;;;;;;;23.32;20.05;101049.48;104794;1306;67833;-88
2023/12/09 04:17:41;;;;;;;16.40;13.90;;;;;;;23.33;20.01;101054.42;104496;1310;67945;-88
2023/12/09 04:20:08;;;;;;;15.20;12.90;;;;;;;23.33;20.15;101062.64;104830;1308;67637;-89
2023/12/09 04:22:38;;;;;;;16.10;13.40;;;;;;;23.33;19.99;101061.36;104640;1302;67652;-89
2023/12/09 04:28:16;;;;;;;18.20;13.90;;;;;;;23.32;20.20;101060.84;104983;1308;66958;-88
2023/12/09 04:30:42;;;;;;;14.80;13.20;;;;;;;23.32;20.15;101057.30;105332;1309;66985;-88
2023/12/09 04:33:09;;;;;;;15.50;13.50;;;;;;;23.33;20.16;101054.02;105098;1305;67770;-88
2023/12/09 04:35:35;;;;;;;16.30;13.30;;;;;;;23.33;20.09;101048.83;104997;1308;67124;-89
2023/12/09 04:38:01;;;;;;;14.70;13.00;;;;;;;23.33;20.13;101050.57;104947;1307;67431;-88
2023/12/09 04:40:27;;;;;;;16.50;13.80;;;;;;;23.34;19.97;101050.42;104629;1302;67676;-88
2023/12/09 04:42:53;;;;;;;15.70;13.30;;;;;;;23.34;19.95;101052.58;104540;1308;67704;-88
2023/12/09 04:45:19;;;;;;;16.60;13.70;;;;;;;23.34;20.22;101051.19;104679;1308;67734;-88
2023/12/09 04:47:45;;;;;;;14.60;13.00;;;;;;;23.34;20.17;101049.64;104878;1305;67967;-88
2023/12/09 04:50:11;;;;;;;14.80;13.20;;;;;;;23.34;20.11;101054.22;104778;1306;67205;-89
2023/12/09 04:52:37;;;;;;;16.50;13.40;;;;;;;23.35;20.13;101054.38;104948;1308;67623;-88
2023/12/09 04:58:10;;;;;;;14.60;12.40;;;;;;;23.34;20.16;101052.98;104944;1308;67731;-89
2023/12/09 05:00:36;;;;;;;14.60;13.00;;;;;;;23.34;20.19;101054.31;104801;1309;67902;-89
2023/12/09 05:03:02;;;;;;;15.30;12.40;;;;;;;23.34;20.07;101057.56;104821;1307;67652;-89
2023/12/09 05:05:28;;;;;;;15.80;12.90;;;;;;;23.34;20.23;101055.04;104695;1308;67698;-89
2023/12/09 05:07:54;;;;;;;14.70;12.40;;;;;;;23.35;20.12;101058.52;104811;1308;67732;-89
2023/12/09 05:10:21;;;;;;;15.50;12.00;;;;;;;23.35;20.25;101063.77;104664;1299;67663;-88
2023/12/09 05:12:47;;;;;;;14.30;12.30;;;;;;;23.35;19.97;101064.90;104515;1308;67665;-89
2023/12/09 05:15:13;;;;;;;14.80;12.80;;;;;;;23.35;20.03;101069.58;104672;1307;68434;-88
2023/12/09 05:17:47;;;;;;;14.30;12.00;;;;;;;23.36;19.98;101072.03;104663;1307;67795;-89
2023/12/09 05:20:19;;;;;;;13.00;11.60;;;;;;;23.36;20.15;101076.34;105117;1305;83203;-89
2023/12/09 05:25:49;;;;;;;13.70;11.90;;;;;;;23.36;20.06;101075.99;105052;1305;68089;-89
2023/12/09 05:31:13;;;;;;;14.60;12.30;;;;;;;23.36;20.20;101076.66;105103;1299;67648;-88
2023/12/09 05:33:43;;;;;;;13.50;12.00;;;;;;;23.36;20.21;101083.33;104898;1308;75324;-89
2023/12/09 05:36:15;;;;;;;15.20;12.10;;;;;;;23.36;20.13;101084.92;104711;1307;67899;-89
2023/12/09 05:38:53;;;;;;;15.00;12.40;;;;;;;23.36;20.11;101085.95;104807;1308;67723;-89
2023/12/09 05:44:23;;;;;;;14.20;12.30;;;;;;;23.37;20.26;101091.38;105118;1303;67647;-90
2023/12/09 05:50:07;;;;;;;13.30;11.90;;;;;;;23.37;20.26;101108.44;105047;1304;67168;-89
2023/12/09 05:55:56;;;;;;;14.70;12.50;;;;;;;23.36;20.14;101111.11;105044;1301;67934;-90
2023/12/09 06:01:30;;;;;;;14.60;12.40;;;;;;;23.37;20.26;101117.63;105062;1299;74549;-89
2023/12/09 06:04:20;;;;;;;14.50;12.20;;;;;;;23.37;20.12;101123.12;105090;1305;67410;-89
2023/12/09 06:09:55;;;;;;;13.90;11.90;;;;;;;23.38;20.19;101132.57;105040;1308;67206;-89
2023/12/09 06:12:25;;;;;;;14.50;12.50;;;;;;;23.37;20.16;101134.48;104959;1308;67597;-89
2023/12/09 06:14:55;;;;;;;13.90;12.50;;;;;;;23.38;20.12;101137.70;104870;1307;74600;-89
2023/12/09 06:17:36;;;;;;;13.20;11.80;;;;;;;23.38;20.11;101136.99;104813;1307;67943;-89
2023/12/09 06:23:27;;;;;;;13.10;11.70;;;;;;;23.38;20.16;101141.19;105050;1305;67697;-89
2023/12/09 06:26:21;;;;;;;12.90;11.50;;;;;;;23.38;20.02;101146.27;101791;1304;67636;-89
2023/12/09 06:28:48;;;;;;;14.70;12.10;;;;;;;23.39;20.16;101146.52;105118;1305;74350;-89
2023/12/09 06:34:16;;;;;;;13.90;12.10;;;;;;;23.39;20.06;101148.02;105072;1305;67490;-90
2023/12/09 06:40:07;;;;;;;14.20;11.10;;;;;;;23.39;20.14;101155.88;105128;1299;67795;-87
2023/12/09 06:46:05;;;;;;;14.40;11.90;;;;;;;23.38;20.05;101161.89;105340;1299;67104;31
2023/12/09 06:48:59;;;;;;;12.60;11.30;;;;;;;23.38;20.07;101165.80;105249;1299;68127;-89
2023/12/09 06:52:00;;;;;;;13.00;10.70;;;;;;;23.38;20.10;101170.92;105129;1299;67038;31
2023/12/09 06:54:52;;;;;;;14.50;11.70;;;;;;;23.38;20.10;101178.22;105167;1305;67751;-90
2023/12/09 06:57:19;;;;;;;12.80;11.10;;;;;;;23.39;20.12;101182.54;105077;1308;77236;-90
2023/12/09 07:05:26;;;;;;;14.10;11.40;;;;;;;23.40;20.09;101190.60;105153;1305;67106;-90
2023/12/09 07:10:46;;;;;;;13.70;11.10;;;;;;;23.41;20.12;101195.23;105144;1305;72123;-90
2023/12/09 07:16:08;;;;;;;11.80;10.50;;;;;;;23.41;20.14;101198.10;105102;1304;67137;-90
2023/12/09 07:24:41;;;;;;;13.20;10.70;;;;;;;23.40;20.17;101197.84;105098;1309;74336;-90
2023/12/09 07:27:15;;;;;;;11.00;9.70;;;;;;;23.41;20.14;101196.20;105124;1307;67725;-90
2023/12/09 07:29:41;;;;;;;11.90;10.40;;;;;;;23.41;20.10;101194.30;105020;1305;67537;-88
2023/12/09 07:32:10;;;;;;;11.50;9.70;;;;;;;23.41;20.08;101195.42;104862;1308;67425;-90
2023/12/09 07:34:51;;;;;;;12.10;10.20;;;;;;;23.41;20.02;101198.73;104918;1309;67100;-90
2023/12/09 07:40:15;;;;;;;11.30;9.90;;;;;;;23.42;20.10;101199.02;105073;1305;71812;-89
2023/12/09 07:48:51;;;;;;;11.50;9.80;;;;;;;23.41;20.03;101205.04;105075;1308;66951;31
2023/12/09 07:54:48;;;;;;;11.90;10.10;;;;;;;23.41;20.05;101213.45;105075;1299;67804;31
2023/12/09 07:57:45;;;;;;;11.80;10.30;;;;;;;23.40;20.15;101212.69;105110;1299;67495;31
2023/12/09 08:00:12;;;;;;;11.60;9.40;;;;;;;23.42;20.01;101210.33;104674;1310;67768;-89
2023/12/09 08:02:41;;;;;;;11.90;10.30;;;;;;;23.42;20.04;101210.23;104830;1308;67732;-89
2023/12/09 08:05:10;;;;;;;10.80;9.70;;;;;;;23.43;19.90;101210.99;104834;1305;83116;-90
2023/12/09 08:10:39;;;;;;;11.40;9.50;;;;;;;23.43;20.26;101208.58;104952;1307;67653;-89
2023/12/09 08:16:13;;;;;;;10.70;9.50;;;;;;;23.42;20.04;101203.60;104981;1302;67628;-90
2023/12/09 08:18:43;;;;;;;11.20;9.20;;;;;;;23.43;19.95;101209.46;104864;1299;83046;-89
2023/12/09 08:21:27;;;;;;;11.70;9.80;;;;;;;23.43;20.00;101209.05;104905;1306;67760;-90
2023/12/09 08:27:25;;;;;;;11.20;9.30;;;;;;;23.43;20.08;101216.95;104852;1309;67662;-89
2023/12/09 08:29:51;;;;;;;11.00;9.40;;;;;;;23.44;20.11;101219.32;104929;1307;67039;-89
2023/12/09 08:32:17;;;;;;;11.90;9.30;;;;;;;23.44;20.03;101220.65;104947;1308;67853;-89
2023/12/09 08:34:43;;;;;;;11.70;9.60;;;;;;;23.44;20.03;101218.39;104732;1308;67802;-89
2023/12/09 08:37:10;;;;;;;10.10;9.10;;;;;;;23.45;20.10;101217.88;104807;1307;66999;-89
2023/12/09 08:39:36;;;;;;;9.80;8.80;;;;;;;23.46;20.05;101215.89;105067;1299;67574;-88
2023/12/09 08:42:02;;;;;;;10.70;9.20;;;;;;;23.45;19.99;101206.06;104875;1308;67710;-89
2023/12/09 08:44:29;;;;;;;12.00;9.50;;;;;;;23.46;19.99;101204.73;104828;1306;67690;-89
2023/12/09 08:46:55;;;;;;;10.30;8.70;;;;;;;23.46;20.08;101203.34;104822;1308;67939;-89
2023/12/09 08:49:21;;;;;;;11.40;9.50;;;;;;;23.46;20.07;101199.85;104986;1305;68054;-89
2023/12/09 08:51:47;;;;;;;12.40;9.00;;;;;;;23.47;20.01;101195.13;104863;1309;67867;-88
2023/12/09 08:54:35;;;;;;;10.10;8.90;;;;;;;23.47;19.94;101189.90;104950;1299;67738;31
2023/12/09 08:57:01;;;;;;;11.00;9.40;;;;;;;23.47;20.08;101182.55;104644;1307;68039;-87
2023/12/09 08:59:27;;;;;;;11.30;9.20;;;;;;;23.47;20.19;101175.92;104650;1307;67886;-87
2023/12/09 09:01:53;;;;;;;10.20;9.10;;;;;;;23.47;20.13;101170.06;104639;1308;67671;-89
2023/12/09 09:04:20;;;;;;;9.90;8.80;;;;;;;23.47;19.97;101169.66;104619;1307;67683;-89
2023/12/09 09:06:51;;;;;;;11.30;9.20;;;;;;;23.47;19.92;101169.19;104579;1307;67736;-89
2023/12/09 09:09:23;;;;;;;9.60;8.50;;;;;;;23.48;19.92;101163.75;104825;1299;73464;-87
2023/12/09 09:11:48;;;;;;;10.30;9.00;;;;;;;23.48;20.03;101160.92;104785;1306;68047;-88
2023/12/09 09:14:15;;;;;;;10.70;8.70;;;;;;;23.47;19.95;101156.40;104847;1307;67885;-88
2023/12/09 09:16:41;;;;;;;11.00;9.00;;;;;;;23.48;19.93;101153.63;104612;1308;67705;-88
2023/12/09 09:19:07;;;;;;;11.70;9.10;;;;;;;23.48;20.07;101147.72;104655;1308;67270;-89
2023/12/09 09:21:33;;;;;;;10.40;8.40;;;;;;;23.49;20.02;101141.24;104844;1302;68169;-88
2023/12/09 09:27:14;;;;;;;10.00;8.80;;;;;;;23.48;20.09;101134.79;104826;1308;67782;-90
2023/12/09 09:29:40;;;;;;;9.80;7.90;;;;;;;23.48;19.96;101135.66;104920;1312;67686;-89
2023/12/09 09:32:07;;;;;;;9.60;8.50;;;;;;;23.48;20.00;101129.19;104561;1307;67772;-89
2023/12/09 09:34:34;;;;;;;10.90;8.50;;;;;;;23.48;20.04;101124.98;104769;1305;67794;-89
2023/12/09 09:37:00;;;;;;;10.70;8.70;;;;;;;23.49;19.95;101122.40;104671;1306;67988;-89
2023/12/09 09:39:26;;;;;;;9.40;8.30;;;;;;;23.50;19.99;101117.98;104814;1309;67796;-89
2023/12/09 09:48:06;;;;;;;9.90;8.70;;;;;;;23.49;19.92;101114.70;104816;1308;67702;-89
2023/12/09 09:50:42;;;;;;;10.00;8.20;;;;;;;23.49;20.08;101110.03;104809;1308;67619;-89
2023/12/09 09:53:11;;;;;;;9.80;8.40;;;;;;;23.50;20.09;101110.34;104614;1307;67038;-89
2023/12/09 09:55:39;;;;;;;10.00;8.60;;;;;;;23.50;20.03;101108.48;104791;1314;67708;-89
2023/12/09 09:58:05;;;;;;;10.60;9.50;;;;;;;23.50;19.99;101102.48;104828;1314;74545;-89
2023/12/09 10:00:31;;;;;;;11.10;9.00;;;;;;;23.51;19.94;101095.34;104662;1309;67645;-89
2023/12/09 10:02:57;;;;;;;9.70;8.60;;;;;;;23.50;20.05;101096.20;104820;1313;67114;-90
2023/12/09 10:05:22;;;;;;;9.80;8.80;;;;;;;23.51;19.96;101093.08;104698;1309;67635;-89
2023/12/09 10:07:48;;;;;;;10.80;9.30;;;;;;;23.51;20.09;101094.30;104648;1313;67733;-89
2023/12/09 10:10:14;;;;;;;11.50;8.80;;;;;;;23.52;19.98;101091.39;104714;1309;67645;-89
2023/12/09 10:12:43;;;;;;;11.40;8.70;;;;;;;23.51;20.10;101086.71;104676;1308;67637;-89
2023/12/09 10:15:12;;;;;;;10.30;8.60;;;;;;;23.52;20.25;101085.16;104430;1314;68209;-90
2023/12/09 10:17:38;;;;;;;9.80;8.60;;;;;;;23.52;20.04;101084.76;104641;1311;67382;-90
2023/12/09 10:20:06;;;;;;;11.90;9.40;;;;;;;23.52;20.05;101079.46;104540;1308;67779;-90
2023/12/09 10:22:32;;;;;;;10.00;8.90;;;;;;;23.53;20.14;101082.34;104599;1308;67720;-90
2023/12/09 10:25:27;;;;;;;12.00;9.60;;;;;;;23.52;20.13;101076.39;104902;1308;67633;-90
2023/12/09 10:27:53;;;;;;;11.00;9.50;;;;;;;23.53;20.06;101075.98;104731;1308;67479;-90
2023/12/09 10:30:24;;;;;;;11.80;9.70;;;;;;;23.52;19.99;101072.28;104707;1307;67675;-90
2023/12/09 10:36:09;;;;;;;13.20;10.50;;;;;;;23.52;20.01;101063.02;105050;1299;67308;-89
2023/12/09 10:47:28;;;;;;;12.60;10.40;;;;;;;23.51;20.13;101049.37;105243;1308;74422;-90
2023/12/09 10:50:04;;;;;;;12.20;10.10;;;;;;;23.52;20.14;101043.10;105071;1305;67155;-90
2023/12/09 10:52:34;;;;;;;13.20;10.10;;;;;;;23.53;20.01;101046.75;104980;1307;67133;-89
2023/12/09 10:55:08;;;;;;;13.30;11.00;;;;;;;23.53;20.06;101046.20;105134;1304;67262;-89
2023/12/09 11:00:36;;;;;;;12.00;10.40;;;;;;;23.53;20.11;101040.32;105245;1308;72773;-89
2023/12/09 11:06:23;;;;;;;12.70;10.60;;;;;;;23.53;20.17;101033.75;84355;1302;66711;-89
2023/12/09 11:08:59;;;;;;;12.40;11.10;;;;;;;23.54;20.15;101039.81;104834;1299;67695;31
2023/12/09 11:12:07;;;;;;;12.20;10.40;;;;;;;23.53;19.99;101039.56;105099;1299;67621;31
2023/12/09 11:21:11;;;;;;;13.00;10.30;;;;;;;23.53;20.13;101038.27;105130;1300;68570;-89
2023/12/09 11:27:08;;;;;;;14.90;10.90;;;;;;;23.52;20.17;101040.18;105141;1299;67801;-90
2023/12/09 11:30:02;;;;;;;12.50;10.50;;;;;;;23.52;20.20;101040.89;90749;1309;72376;-89
2023/12/09 11:36:06;;;;;;;12.70;10.70;;;;;;;23.53;20.29;101041.92;105095;1304;67218;31
2023/12/09 11:42:06;;;;;;;13.20;10.30;;;;;;;23.53;20.28;101039.19;105082;1299;66995;-89
2023/12/09 11:48:08;;;;;;;12.30;9.90;;;;;;;23.54;20.27;101026.52;105068;1299;67882;-89
2023/12/09 11:51:01;;;;;;;12.20;10.00;;;;;;;23.53;20.20;101024.81;105000;1308;68221;-89
2023/12/09 11:53:43;;;;;;;12.60;10.30;;;;;;;23.54;20.23;101024.20;104880;1307;67725;-89
2023/12/09 11:56:12;;;;;;;13.80;10.30;;;;;;;23.55;20.17;101017.79;104966;1308;67655;-90
2023/12/09 11:58:39;;;;;;;13.00;10.30;;;;;;;23.55;20.23;101017.11;104857;1305;75491;-89
2023/12/09 12:01:05;;;;;;;14.40;10.10;;;;;;;23.57;20.27;101017.41;104826;1305;68031;-88
2023/12/09 12:03:32;;;;;;;12.60;10.20;;;;;;;23.58;20.19;101016.95;104730;1306;67940;-89
2023/12/09 12:06:01;;;;;;;12.30;10.30;;;;;;;23.58;20.26;101014.13;104726;1308;67863;-88
2023/12/09 12:11:08;;;;;;;12.10;10.50;;;;;;;23.59;20.19;101016.95;104224;1308;80275;-88
2023/12/09 12:13:34;;;;;;;13.30;10.30;;;;;;;23.58;20.19;101014.29;104754;1308;67929;-88
2023/12/09 12:16:00;;;;;;;11.70;10.40;;;;;;;23.59;20.22;101010.46;104679;1308;67606;-88
2023/12/09 12:18:30;;;;;;;12.40;10.80;;;;;;;23.59;20.28;101008.05;104557;1308;67946;-88
2023/12/09 12:20:57;;;;;;;12.70;10.50;;;;;;;23.59;20.19;101007.70;104747;1308;67060;-89
2023/12/09 12:29:35;;;;;;;12.70;10.70;;;;;;;23.59;20.17;101004.46;104967;1307;67594;-89
2023/12/09 12:32:06;;;;;;;15.00;11.30;;;;;;;23.59;20.27;100998.56;105017;1306;66991;-89
2023/12/09 12:34:32;;;;;;;11.70;10.50;;;;;;;23.59;20.18;100996.75;104803;1308;67226;-89
2023/12/09 12:36:58;;;;;;;12.40;11.00;;;;;;;23.59;20.12;100995.67;104503;1308;455984;-88
2023/12/09 12:39:25;;;;;;;13.00;10.70;;;;;;;23.60;20.17;101000.09;104620;1308;67701;-88
2023/12/09 12:41:52;;;;;;;13.00;11.30;;;;;;;23.60;20.02;100999.67;104722;1299;67186;-88
2023/12/09 12:44:32;;;;;;;13.10;11.60;;;;;;;23.60;20.04;101001.98;104671;1308;67636;-88
2023/12/09 12:46:59;;;;;;;;;;;;;;;23.60;20.25;101004.20;104969;1308;67699;-89
2023/12/09 12:49:26;;;;;;;13.10;10.60;;;;;;;23.58;20.31;101002.98;105059;1305;74785;-89
2023/12/09 12:51:55;;;;;;;12.90;10.90;;;;;;;23.59;20.16;100999.84;104665;1307;67871;-88
2023/12/09 12:54:21;;;;;;;13.80;11.60;;;;;;;23.59;20.29;101001.85;104546;1308;67624;-89
2023/12/09 12:56:47;;;;;;;14.80;11.90;;;;;;;23.59;20.07;100995.31;104715;1308;67026;-88
2023/12/09 13:02:29;;;;;;;13.30;10.90;;;;;;;23.59;20.15;100998.25;104855;1309;74344;-89
2023/12/09 13:04:57;;;;;;;12.10;10.60;;;;;;;23.59;20.20;100996.90;105028;1308;67745;-88
2023/12/09 13:07:23;;;;;;;12.90;10.90;;;;;;;23.59;20.20;100993.81;105012;1307;67691;-89
2023/12/09 13:09:53;;;;;;;12.10;10.80;;;;;;;23.60;20.11;100994.48;104815;1307;67100;-89
2023/12/09 13:15:25;;;;;;;13.10;11.30;;;;;;;23.60;20.21;100999.83;105093;1303;72926;-89
2023/12/09 13:23:35;;;;;;;11.50;10.30;;;;;;;23.59;20.19;100997.23;105082;1299;67148;-89
2023/12/09 13:26:02;;;;;;;11.20;10.00;;;;;;;23.60;20.12;100999.42;104920;1308;75893;-89
2023/12/09 13:28:36;;;;;;;13.10;10.70;;;;;;;23.60;20.19;100999.84;104960;1308;72603;-88
2023/12/09 13:31:02;;;;;;;12.90;10.50;;;;;;;23.60;20.20;101000.23;104715;1304;67226;-88
2023/12/09 13:33:29;;;;;;;11.70;10.20;;;;;;;23.60;20.27;101000.09;104816;1308;67781;-88
2023/12/09 13:35:55;;;;;;;11.60;10.20;;;;;;;23.60;20.10;101003.84;104823;1307;67894;-89
2023/12/09 13:38:26;;;;;;;12.00;10.30;;;;;;;23.61;20.22;101001.47;104670;1301;67820;-87
2023/12/09 13:40:52;;;;;;;13.20;10.80;;;;;;;23.61;20.24;101001.88;105071;1305;74711;-89
2023/12/09 13:43:18;;;;;;;12.80;11.10;;;;;;;23.61;20.20;101004.45;105050;1305;68104;-89
2023/12/09 13:45:44;;;;;;;12.90;10.90;;;;;;;23.61;20.25;101008.71;104810;1308;67714;-89
2023/12/09 13:48:10;;;;;;;12.90;11.20;;;;;;;23.61;20.29;101014.16;104603;1308;67288;-89
2023/12/09 13:50:39;;;;;;;13.40;10.90;;;;;;;23.61;20.29;101014.41;104727;1308;68321;-89
2023/12/09 13:53:17;;;;;;;13.30;11.10;;;;;;;23.61;20.18;101016.83;104699;1309;74260;-89
2023/12/09 13:55:43;;;;;;;13.30;11.20;;;;;;;23.62;20.16;101019.85;104944;1308;67220;-89
2023/12/09 13:58:09;;;;;;;13.60;11.90;;;;;;;23.63;20.24;101015.95;105033;1305;67843;-88
2023/12/09 14:00:35;;;;;;;14.20;11.10;;;;;;;23.62;20.10;101019.45;104693;1308;67814;-89
2023/12/09 14:03:02;;;;;;;13.10;11.20;;;;;;;23.62;20.17;101020.02;104562;1307;67540;-88
2023/12/09 14:05:28;;;;;;;13.70;12.00;;;;;;;23.63;20.26;101017.79;104685;1302;67812;-88
2023/12/09 14:07:54;;;;;;;14.20;11.80;;;;;;;23.63;20.35;101018.92;104848;1309;67637;-88
2023/12/09 14:10:20;;;;;;;14.90;12.30;;;;;;;23.63;20.17;101019.65;104621;1308;68091;-89
2023/12/09 14:12:47;;;;;;;15.80;12.50;;;;;;;23.63;20.26;101019.40;104760;1301;67008;-88
2023/12/09 14:15:14;;;;;;;14.20;12.10;;;;;;;23.63;20.34;101015.29;104721;1308;67710;-88
2023/12/09 14:17:41;;;;;;;14.80;12.90;;;;;;;23.63;20.26;101010.50;104688;1307;67705;-88
2023/12/09 14:20:17;;;;;;;14.50;12.70;;;;;;;23.64;20.19;101015.13;104880;1299;67668;31
2023/12/09 14:22:45;;;;;;;14.20;12.10;;;;;;;23.64;20.24;101016.83;104808;1307;67712;-89
2023/12/09 14:25:12;;;;;;;13.80;12.10;;;;;;;23.64;20.22;101016.31;104892;1308;67115;-88